sensor_id;sensor_type;location;lat;lon;timestamp;temperature;humidity
31725;DHT22;18306;40.960;14.836;2022-07-18T00:00:06;21.20;99.90
31725;DHT22;18306;40.960;14.836;2022-07-18T00:02:35;21.10;99.90
31725;DHT22;18306;40.960;14.836;2022-07-18T00:05:03;20.80;99.90
31725;DHT22;18306;40.960;14.836;2022-07-18T00:07:31;20.80;99.90
31725;DHT22;18306;40.960;14.836;2022-07-18T00:09:58;21.00;99.90
31725;DHT22;18306;40.960;14.836;2022-07-18T00:12:25;21.10;99.90
31725;DHT22;18306;40.960;14.836;2022-07-18T00:14:53;21.20;99.90
31725;DHT22;18306;40.960;14.836;2022-07-18T00:17:20;21.10;99.90
31725;DHT22;18306;40.960;14.836;2022-07-18T00:19:47;21.10;99.90
31725;DHT22;18306;40.960;14.836;2022-07-18T00:22:14;21.10;99.90
31725;DHT22;18306;40.960;14.836;2022-07-18T00:24:41;21.00;99.90
31725;DHT22;18306;40.960;14.836;2022-07-18T00:27:11;21.00;99.90
31725;DHT22;18306;40.960;14.836;2022-07-18T00:29:38;20.90;99.90
31725;DHT22;18306;40.960;14.836;2022-07-18T00:32:09;20.90;99.90
31725;DHT22;18306;40.960;14.836;2022-07-18T00:34:42;20.80;99.90
31725;DHT22;18306;40.960;14.836;2022-07-18T00:37:31;20.80;99.90
31725;DHT22;18306;40.960;14.836;2022-07-18T00:40:11;20.60;99.90
31725;DHT22;18306;40.960;14.836;2022-07-18T00:42:49;20.50;99.90
31725;DHT22;18306;40.960;14.836;2022-07-18T00:45:19;20.60;99.90
31725;DHT22;18306;40.960;14.836;2022-07-18T00:47:47;20.50;99.90
31725;DHT22;18306;40.960;14.836;2022-07-18T00:50:14;20.50;99.90
31725;DHT22;18306;40.960;14.836;2022-07-18T00:52:41;20.70;99.90
31725;DHT22;18306;40.960;14.836;2022-07-18T00:55:09;20.60;99.90
31725;DHT22;18306;40.960;14.836;2022-07-18T00:57:36;20.60;99.90
31725;DHT22;18306;40.960;14.836;2022-07-18T01:00:10;20.70;99.90
31725;DHT22;18306;40.960;14.836;2022-07-18T01:02:57;20.70;99.90
31725;DHT22;18306;40.960;14.836;2022-07-18T01:05:24;20.40;99.90
31725;DHT22;18306;40.960;14.836;2022-07-18T01:07:51;20.40;99.90
31725;DHT22;18306;40.960;14.836;2022-07-18T01:10:19;20.50;99.90
31725;DHT22;18306;40.960;14.836;2022-07-18T01:12:46;20.40;99.90
31725;DHT22;18306;40.960;14.836;2022-07-18T01:15:13;20.40;99.90
31725;DHT22;18306;40.960;14.836;2022-07-18T01:17:41;20.40;99.90
31725;DHT22;18306;40.960;14.836;2022-07-18T01:20:08;20.40;99.90
31725;DHT22;18306;40.960;14.836;2022-07-18T01:22:36;20.40;99.90
31725;DHT22;18306;40.960;14.836;2022-07-18T01:25:06;20.50;99.90
31725;DHT22;18306;40.960;14.836;2022-07-18T01:27:33;20.60;99.90
31725;DHT22;18306;40.960;14.836;2022-07-18T01:30:01;20.70;99.90
31725;DHT22;18306;40.960;14.836;2022-07-18T01:32:28;20.90;99.90
31725;DHT22;18306;40.960;14.836;2022-07-18T01:34:55;21.00;99.90
31725;DHT22;18306;40.960;14.836;2022-07-18T01:37:23;21.00;99.90
31725;DHT22;18306;40.960;14.836;2022-07-18T01:39:50;21.00;99.90
31725;DHT22;18306;40.960;14.836;2022-07-18T01:42:17;20.90;99.90
31725;DHT22;18306;40.960;14.836;2022-07-18T01:44:44;20.90;99.90
31725;DHT22;18306;40.960;14.836;2022-07-18T01:47:12;20.80;99.90
31725;DHT22;18306;40.960;14.836;2022-07-18T01:49:40;20.80;99.90
31725;DHT22;18306;40.960;14.836;2022-07-18T01:52:08;20.80;99.90
31725;DHT22;18306;40.960;14.836;2022-07-18T01:54:36;20.80;99.90
31725;DHT22;18306;40.960;14.836;2022-07-18T01:57:05;20.80;99.90
31725;DHT22;18306;40.960;14.836;2022-07-18T01:59:33;20.80;99.90
31725;DHT22;18306;40.960;14.836;2022-07-18T02:02:02;20.60;99.90
31725;DHT22;18306;40.960;14.836;2022-07-18T02:04:29;20.60;99.90
31725;DHT22;18306;40.960;14.836;2022-07-18T02:07:15;20.60;99.90
31725;DHT22;18306;40.960;14.836;2022-07-18T02:09:42;20.70;99.90
31725;DHT22;18306;40.960;14.836;2022-07-18T02:12:09;20.70;99.90
31725;DHT22;18306;40.960;14.836;2022-07-18T02:14:37;20.70;99.90
31725;DHT22;18306;40.960;14.836;2022-07-18T02:17:04;20.70;99.90
31725;DHT22;18306;40.960;14.836;2022-07-18T02:19:31;20.60;99.90
31725;DHT22;18306;40.960;14.836;2022-07-18T02:21:58;20.20;99.90
31725;DHT22;18306;40.960;14.836;2022-07-18T02:24:25;20.20;99.90
31725;DHT22;18306;40.960;14.836;2022-07-18T02:26:54;19.90;99.90
31725;DHT22;18306;40.960;14.836;2022-07-18T02:29:21;20.00;99.90
31725;DHT22;18306;40.960;14.836;2022-07-18T02:31:48;20.10;99.90
31725;DHT22;18306;40.960;14.836;2022-07-18T02:34:16;20.10;99.90
31725;DHT22;18306;40.960;14.836;2022-07-18T02:36:43;20.00;99.90
31725;DHT22;18306;40.960;14.836;2022-07-18T02:39:11;19.90;99.90
31725;DHT22;18306;40.960;14.836;2022-07-18T02:41:38;20.00;99.90
31725;DHT22;18306;40.960;14.836;2022-07-18T02:44:05;19.90;99.90
31725;DHT22;18306;40.960;14.836;2022-07-18T02:46:32;19.80;99.90
31725;DHT22;18306;40.960;14.836;2022-07-18T02:48:59;19.70;99.90
31725;DHT22;18306;40.960;14.836;2022-07-18T02:51:27;19.80;99.90
31725;DHT22;18306;40.960;14.836;2022-07-18T02:53:54;19.80;99.90
31725;DHT22;18306;40.960;14.836;2022-07-18T02:56:21;19.90;99.90
31725;DHT22;18306;40.960;14.836;2022-07-18T02:58:48;19.90;99.90
31725;DHT22;18306;40.960;14.836;2022-07-18T03:01:15;19.80;99.90
31725;DHT22;18306;40.960;14.836;2022-07-18T03:03:42;19.70;99.90
31725;DHT22;18306;40.960;14.836;2022-07-18T03:06:10;19.70;99.90
31725;DHT22;18306;40.960;14.836;2022-07-18T03:08:37;19.90;99.90
31725;DHT22;18306;40.960;14.836;2022-07-18T03:11:04;20.10;99.90
31725;DHT22;18306;40.960;14.836;2022-07-18T03:13:31;20.10;99.90
31725;DHT22;18306;40.960;14.836;2022-07-18T03:15:59;20.00;99.90
31725;DHT22;18306;40.960;14.836;2022-07-18T03:18:26;20.00;99.90
31725;DHT22;18306;40.960;14.836;2022-07-18T03:20:53;19.90;99.90
31725;DHT22;18306;40.960;14.836;2022-07-18T03:23:21;19.80;99.90
31725;DHT22;18306;40.960;14.836;2022-07-18T03:25:48;19.80;99.90
31725;DHT22;18306;40.960;14.836;2022-07-18T03:28:15;19.70;99.90
31725;DHT22;18306;40.960;14.836;2022-07-18T03:30:42;19.70;99.90
31725;DHT22;18306;40.960;14.836;2022-07-18T03:33:09;19.80;99.90
31725;DHT22;18306;40.960;14.836;2022-07-18T03:35:37;19.90;99.90
31725;DHT22;18306;40.960;14.836;2022-07-18T03:38:04;19.90;99.90
31725;DHT22;18306;40.960;14.836;2022-07-18T03:40:32;19.90;99.90
31725;DHT22;18306;40.960;14.836;2022-07-18T03:42:59;19.90;99.90
31725;DHT22;18306;40.960;14.836;2022-07-18T03:45:26;19.90;99.90
31725;DHT22;18306;40.960;14.836;2022-07-18T03:47:54;19.90;99.90
31725;DHT22;18306;40.960;14.836;2022-07-18T03:50:22;19.90;99.90
31725;DHT22;18306;40.960;14.836;2022-07-18T03:52:49;19.60;99.90
31725;DHT22;18306;40.960;14.836;2022-07-18T03:55:17;19.60;99.90
31725;DHT22;18306;40.960;14.836;2022-07-18T03:57:44;19.70;99.90
31725;DHT22;18306;40.960;14.836;2022-07-18T04:00:12;19.70;99.90
31725;DHT22;18306;40.960;14.836;2022-07-18T04:02:45;19.70;99.90
31725;DHT22;18306;40.960;14.836;2022-07-18T04:05:14;19.70;99.90
31725;DHT22;18306;40.960;14.836;2022-07-18T04:07:42;19.70;99.90
31725;DHT22;18306;40.960;14.836;2022-07-18T04:10:11;19.80;99.90
31725;DHT22;18306;40.960;14.836;2022-07-18T04:12:50;19.80;99.90
31725;DHT22;18306;40.960;14.836;2022-07-18T04:15:23;19.80;99.90
31725;DHT22;18306;40.960;14.836;2022-07-18T04:17:50;19.90;99.90
31725;DHT22;18306;40.960;14.836;2022-07-18T04:20:19;20.10;99.90
31725;DHT22;18306;40.960;14.836;2022-07-18T04:22:55;20.30;99.90
31725;DHT22;18306;40.960;14.836;2022-07-18T04:25:25;20.20;99.90
31725;DHT22;18306;40.960;14.836;2022-07-18T04:27:52;20.00;99.90
31725;DHT22;18306;40.960;14.836;2022-07-18T04:30:23;20.10;99.90
31725;DHT22;18306;40.960;14.836;2022-07-18T04:32:50;20.20;99.90
31725;DHT22;18306;40.960;14.836;2022-07-18T04:35:17;20.30;99.90
31725;DHT22;18306;40.960;14.836;2022-07-18T04:37:45;20.30;99.90
31725;DHT22;18306;40.960;14.836;2022-07-18T04:40:14;20.40;99.90
31725;DHT22;18306;40.960;14.836;2022-07-18T04:42:42;20.60;99.90
31725;DHT22;18306;40.960;14.836;2022-07-18T04:45:10;20.60;99.90
31725;DHT22;18306;40.960;14.836;2022-07-18T04:47:37;20.60;99.90
31725;DHT22;18306;40.960;14.836;2022-07-18T04:50:05;20.50;99.90
31725;DHT22;18306;40.960;14.836;2022-07-18T04:52:40;20.50;99.90
31725;DHT22;18306;40.960;14.836;2022-07-18T04:55:09;20.40;99.90
31725;DHT22;18306;40.960;14.836;2022-07-18T04:57:37;20.20;99.90
31725;DHT22;18306;40.960;14.836;2022-07-18T05:00:06;20.40;99.90
31725;DHT22;18306;40.960;14.836;2022-07-18T05:02:34;20.50;99.90
31725;DHT22;18306;40.960;14.836;2022-07-18T05:05:01;20.60;99.90
31725;DHT22;18306;40.960;14.836;2022-07-18T05:07:28;20.60;99.90
31725;DHT22;18306;40.960;14.836;2022-07-18T05:09:55;20.60;99.90
31725;DHT22;18306;40.960;14.836;2022-07-18T05:12:23;20.60;99.90
31725;DHT22;18306;40.960;14.836;2022-07-18T05:14:50;20.70;99.90
31725;DHT22;18306;40.960;14.836;2022-07-18T05:17:17;20.90;99.90
31725;DHT22;18306;40.960;14.836;2022-07-18T05:19:44;21.10;99.90
31725;DHT22;18306;40.960;14.836;2022-07-18T05:22:12;21.20;99.90
31725;DHT22;18306;40.960;14.836;2022-07-18T05:24:39;21.40;99.90
31725;DHT22;18306;40.960;14.836;2022-07-18T05:27:06;21.50;99.90
31725;DHT22;18306;40.960;14.836;2022-07-18T05:29:33;21.70;99.90
31725;DHT22;18306;40.960;14.836;2022-07-18T05:32:02;21.80;99.90
31725;DHT22;18306;40.960;14.836;2022-07-18T05:34:31;22.00;99.90
31725;DHT22;18306;40.960;14.836;2022-07-18T05:36:58;22.30;99.90
31725;DHT22;18306;40.960;14.836;2022-07-18T05:39:25;22.80;99.90
31725;DHT22;18306;40.960;14.836;2022-07-18T05:41:52;23.20;99.90
31725;DHT22;18306;40.960;14.836;2022-07-18T05:44:19;23.60;99.90
31725;DHT22;18306;40.960;14.836;2022-07-18T05:46:48;24.00;99.90
31725;DHT22;18306;40.960;14.836;2022-07-18T05:49:15;24.30;99.90
31725;DHT22;18306;40.960;14.836;2022-07-18T05:51:42;24.70;99.90
31725;DHT22;18306;40.960;14.836;2022-07-18T05:54:10;25.10;99.90
31725;DHT22;18306;40.960;14.836;2022-07-18T05:56:38;25.70;99.90
31725;DHT22;18306;40.960;14.836;2022-07-18T05:59:05;26.80;99.90
31725;DHT22;18306;40.960;14.836;2022-07-18T06:01:32;28.10;99.90
31725;DHT22;18306;40.960;14.836;2022-07-18T06:03:59;28.90;99.90
31725;DHT22;18306;40.960;14.836;2022-07-18T06:06:26;29.80;99.90
31725;DHT22;18306;40.960;14.836;2022-07-18T06:08:54;30.30;99.60
31725;DHT22;18306;40.960;14.836;2022-07-18T06:12:14;30.40;99.00
31725;DHT22;18306;40.960;14.836;2022-07-18T06:14:43;30.60;98.70
31725;DHT22;18306;40.960;14.836;2022-07-18T06:18:01;31.00;98.00
31725;DHT22;18306;40.960;14.836;2022-07-18T06:20:59;30.80;97.40
31725;DHT22;18306;40.960;14.836;2022-07-18T06:27:21;27.80;99.90
31725;DHT22;18306;40.960;14.836;2022-07-18T06:29:49;27.60;99.90
31725;DHT22;18306;40.960;14.836;2022-07-18T06:32:44;29.50;99.90
31725;DHT22;18306;40.960;14.836;2022-07-18T06:35:16;31.40;98.00
31725;DHT22;18306;40.960;14.836;2022-07-18T06:37:44;31.40;95.60
31725;DHT22;18306;40.960;14.836;2022-07-18T06:40:12;29.60;98.50
31725;DHT22;18306;40.960;14.836;2022-07-18T06:42:39;28.80;99.80
31725;DHT22;18306;40.960;14.836;2022-07-18T06:45:09;28.10;99.90
31725;DHT22;18306;40.960;14.836;2022-07-18T06:47:40;27.90;99.90
31725;DHT22;18306;40.960;14.836;2022-07-18T06:50:17;27.70;99.90
31725;DHT22;18306;40.960;14.836;2022-07-18T06:52:45;27.80;99.90
31725;DHT22;18306;40.960;14.836;2022-07-18T06:55:15;27.80;99.90
31725;DHT22;18306;40.960;14.836;2022-07-18T06:57:42;27.60;99.90
31725;DHT22;18306;40.960;14.836;2022-07-18T07:00:14;27.80;99.90
31725;DHT22;18306;40.960;14.836;2022-07-18T07:02:48;27.70;99.90
31725;DHT22;18306;40.960;14.836;2022-07-18T07:05:17;27.50;99.90
31725;DHT22;18306;40.960;14.836;2022-07-18T07:07:48;27.00;99.90
31725;DHT22;18306;40.960;14.836;2022-07-18T07:10:18;26.60;99.90
31725;DHT22;18306;40.960;14.836;2022-07-18T07:12:48;26.60;99.90
31725;DHT22;18306;40.960;14.836;2022-07-18T07:15:19;26.90;99.90
31725;DHT22;18306;40.960;14.836;2022-07-18T07:17:47;27.20;99.90
31725;DHT22;18306;40.960;14.836;2022-07-18T07:20:14;27.30;99.90
31725;DHT22;18306;40.960;14.836;2022-07-18T07:22:52;27.60;99.90
31725;DHT22;18306;40.960;14.836;2022-07-18T07:25:21;27.90;99.90
31725;DHT22;18306;40.960;14.836;2022-07-18T07:27:49;27.80;99.90
31725;DHT22;18306;40.960;14.836;2022-07-18T07:30:16;27.80;99.90
31725;DHT22;18306;40.960;14.836;2022-07-18T07:32:45;27.80;99.90
31725;DHT22;18306;40.960;14.836;2022-07-18T07:35:16;27.70;99.90
31725;DHT22;18306;40.960;14.836;2022-07-18T07:37:50;27.70;99.90
31725;DHT22;18306;40.960;14.836;2022-07-18T07:40:18;28.00;99.90
31725;DHT22;18306;40.960;14.836;2022-07-18T07:42:48;28.20;99.70
31725;DHT22;18306;40.960;14.836;2022-07-18T07:45:16;28.50;98.30
31725;DHT22;18306;40.960;14.836;2022-07-18T07:47:44;28.70;99.30
31725;DHT22;18306;40.960;14.836;2022-07-18T07:50:14;28.90;97.80
31725;DHT22;18306;40.960;14.836;2022-07-18T07:52:42;28.90;96.30
31725;DHT22;18306;40.960;14.836;2022-07-18T07:55:09;29.00;95.80
31725;DHT22;18306;40.960;14.836;2022-07-18T07:57:36;29.10;94.50
31725;DHT22;18306;40.960;14.836;2022-07-18T08:00:07;29.20;94.10
31725;DHT22;18306;40.960;14.836;2022-07-18T08:05:23;30.10;94.30
31725;DHT22;18306;40.960;14.836;2022-07-18T08:07:53;31.60;92.80
31725;DHT22;18306;40.960;14.836;2022-07-18T08:10:23;32.30;90.80
31725;DHT22;18306;40.960;14.836;2022-07-18T08:12:51;32.30;90.00
31725;DHT22;18306;40.960;14.836;2022-07-18T08:15:19;31.40;91.10
31725;DHT22;18306;40.960;14.836;2022-07-18T08:17:49;31.30;92.70
31725;DHT22;18306;40.960;14.836;2022-07-18T08:20:19;31.50;91.60
31725;DHT22;18306;40.960;14.836;2022-07-18T08:22:59;31.10;92.10
31725;DHT22;18306;40.960;14.836;2022-07-18T08:25:30;30.70;92.60
31725;DHT22;18306;40.960;14.836;2022-07-18T08:27:58;30.50;93.30
31725;DHT22;18306;40.960;14.836;2022-07-18T08:30:26;30.40;92.40
31725;DHT22;18306;40.960;14.836;2022-07-18T08:32:54;30.30;92.70
31725;DHT22;18306;40.960;14.836;2022-07-18T08:35:21;30.50;93.00
31725;DHT22;18306;40.960;14.836;2022-07-18T08:37:48;30.30;94.20
31725;DHT22;18306;40.960;14.836;2022-07-18T08:40:16;30.30;92.90
31725;DHT22;18306;40.960;14.836;2022-07-18T08:42:43;30.20;92.20
31725;DHT22;18306;40.960;14.836;2022-07-18T08:45:10;30.20;93.20
31725;DHT22;18306;40.960;14.836;2022-07-18T08:47:38;30.40;92.60
31725;DHT22;18306;40.960;14.836;2022-07-18T08:50:05;30.40;93.10
31725;DHT22;18306;40.960;14.836;2022-07-18T08:52:34;30.30;92.70
31725;DHT22;18306;40.960;14.836;2022-07-18T08:55:03;30.50;92.70
31725;DHT22;18306;40.960;14.836;2022-07-18T08:57:31;30.30;91.50
31725;DHT22;18306;40.960;14.836;2022-07-18T08:59:58;30.20;92.70
31725;DHT22;18306;40.960;14.836;2022-07-18T09:02:26;30.30;92.20
31725;DHT22;18306;40.960;14.836;2022-07-18T09:04:54;30.50;92.60
31725;DHT22;18306;40.960;14.836;2022-07-18T09:07:33;30.40;92.60
31725;DHT22;18306;40.960;14.836;2022-07-18T09:10:04;30.30;92.30
31725;DHT22;18306;40.960;14.836;2022-07-18T09:12:32;30.40;92.00
31725;DHT22;18306;40.960;14.836;2022-07-18T09:15:09;30.50;92.10
31725;DHT22;18306;40.960;14.836;2022-07-18T09:17:42;30.50;91.80
31725;DHT22;18306;40.960;14.836;2022-07-18T09:20:11;30.50;91.10
31725;DHT22;18306;40.960;14.836;2022-07-18T09:22:44;30.60;92.10
31725;DHT22;18306;40.960;14.836;2022-07-18T09:25:14;30.70;92.30
31725;DHT22;18306;40.960;14.836;2022-07-18T09:27:47;30.90;91.30
31725;DHT22;18306;40.960;14.836;2022-07-18T09:30:31;30.80;91.20
31725;DHT22;18306;40.960;14.836;2022-07-18T09:33:08;30.90;91.50
31725;DHT22;18306;40.960;14.836;2022-07-18T09:35:37;30.70;90.70
31725;DHT22;18306;40.960;14.836;2022-07-18T09:38:09;30.80;91.30
31725;DHT22;18306;40.960;14.836;2022-07-18T09:40:45;30.90;91.20
31725;DHT22;18306;40.960;14.836;2022-07-18T09:43:15;30.90;92.40
31725;DHT22;18306;40.960;14.836;2022-07-18T09:45:49;31.00;91.60
31725;DHT22;18306;40.960;14.836;2022-07-18T09:48:19;31.10;91.20
31725;DHT22;18306;40.960;14.836;2022-07-18T09:50:59;31.10;90.60
31725;DHT22;18306;40.960;14.836;2022-07-18T09:53:30;31.00;90.50
31725;DHT22;18306;40.960;14.836;2022-07-18T09:56:05;30.70;92.00
31725;DHT22;18306;40.960;14.836;2022-07-18T09:58:42;30.70;90.90
31725;DHT22;18306;40.960;14.836;2022-07-18T10:01:16;30.80;90.90
31725;DHT22;18306;40.960;14.836;2022-07-18T10:03:47;31.00;90.60
31725;DHT22;18306;40.960;14.836;2022-07-18T10:06:17;31.00;90.50
31725;DHT22;18306;40.960;14.836;2022-07-18T10:08:48;30.80;91.60
31725;DHT22;18306;40.960;14.836;2022-07-18T10:11:16;31.10;92.10
31725;DHT22;18306;40.960;14.836;2022-07-18T10:13:43;31.10;89.70
31725;DHT22;18306;40.960;14.836;2022-07-18T10:16:11;31.20;90.50
31725;DHT22;18306;40.960;14.836;2022-07-18T10:18:39;31.30;90.70
31725;DHT22;18306;40.960;14.836;2022-07-18T10:21:11;31.40;90.20
31725;DHT22;18306;40.960;14.836;2022-07-18T10:23:41;31.50;90.00
31725;DHT22;18306;40.960;14.836;2022-07-18T10:26:26;31.60;90.10
31725;DHT22;18306;40.960;14.836;2022-07-18T10:31:28;31.50;89.40
31725;DHT22;18306;40.960;14.836;2022-07-18T10:39:19;31.50;90.10
31725;DHT22;18306;40.960;14.836;2022-07-18T10:47:08;31.70;89.40
31725;DHT22;18306;40.960;14.836;2022-07-18T10:57:40;31.90;88.70
31725;DHT22;18306;40.960;14.836;2022-07-18T11:00:16;32.00;87.60
31725;DHT22;18306;40.960;14.836;2022-07-18T11:02:47;32.10;88.10
31725;DHT22;18306;40.960;14.836;2022-07-18T11:16:09;32.10;87.80
31725;DHT22;18306;40.960;14.836;2022-07-18T11:21:30;31.90;89.20
31725;DHT22;18306;40.960;14.836;2022-07-18T11:24:11;31.90;87.30
31725;DHT22;18306;40.960;14.836;2022-07-18T11:26:45;31.80;90.10
31725;DHT22;18306;40.960;14.836;2022-07-18T11:29:15;32.00;85.80
31725;DHT22;18306;40.960;14.836;2022-07-18T11:31:54;32.30;86.60
31725;DHT22;18306;40.960;14.836;2022-07-18T11:34:24;32.30;84.80
31725;DHT22;18306;40.960;14.836;2022-07-18T11:36:52;32.30;86.40
31725;DHT22;18306;40.960;14.836;2022-07-18T11:39:30;32.30;88.20
31725;DHT22;18306;40.960;14.836;2022-07-18T11:41:58;32.00;88.30
31725;DHT22;18306;40.960;14.836;2022-07-18T11:44:25;32.40;87.30
31725;DHT22;18306;40.960;14.836;2022-07-18T11:49:29;31.50;89.50
31725;DHT22;18306;40.960;14.836;2022-07-18T11:51:56;31.50;89.20
31725;DHT22;18306;40.960;14.836;2022-07-18T11:54:26;30.80;90.50
31725;DHT22;18306;40.960;14.836;2022-07-18T11:57:04;31.00;90.80
31725;DHT22;18306;40.960;14.836;2022-07-18T11:59:50;31.50;90.30
31725;DHT22;18306;40.960;14.836;2022-07-18T12:02:17;32.10;87.80
31725;DHT22;18306;40.960;14.836;2022-07-18T12:04:45;32.50;87.90
31725;DHT22;18306;40.960;14.836;2022-07-18T12:07:14;32.70;87.60
31725;DHT22;18306;40.960;14.836;2022-07-18T12:09:42;32.80;86.30
31725;DHT22;18306;40.960;14.836;2022-07-18T12:12:11;32.90;85.20
31725;DHT22;18306;40.960;14.836;2022-07-18T12:14:41;33.10;85.20
31725;DHT22;18306;40.960;14.836;2022-07-18T12:17:19;33.00;85.70
31725;DHT22;18306;40.960;14.836;2022-07-18T12:19:46;33.00;85.70
31725;DHT22;18306;40.960;14.836;2022-07-18T12:22:14;33.00;84.10
31725;DHT22;18306;40.960;14.836;2022-07-18T12:24:54;33.10;83.60
31725;DHT22;18306;40.960;14.836;2022-07-18T12:27:34;31.60;88.70
31725;DHT22;18306;40.960;14.836;2022-07-18T12:30:19;31.20;90.20
31725;DHT22;18306;40.960;14.836;2022-07-18T12:32:57;31.70;90.20
31725;DHT22;18306;40.960;14.836;2022-07-18T12:35:30;31.70;88.50
31725;DHT22;18306;40.960;14.836;2022-07-18T12:38:04;32.30;84.30
31725;DHT22;18306;40.960;14.836;2022-07-18T12:43:29;32.90;85.70
31725;DHT22;18306;40.960;14.836;2022-07-18T12:46:03;33.10;82.00
31725;DHT22;18306;40.960;14.836;2022-07-18T12:48:32;33.00;82.80
31725;DHT22;18306;40.960;14.836;2022-07-18T12:51:05;33.20;84.30
31725;DHT22;18306;40.960;14.836;2022-07-18T12:53:37;33.20;80.60
31725;DHT22;18306;40.960;14.836;2022-07-18T12:56:05;33.20;81.50
31725;DHT22;18306;40.960;14.836;2022-07-18T12:58:33;33.30;81.40
31725;DHT22;18306;40.960;14.836;2022-07-18T13:01:00;33.20;82.10
31725;DHT22;18306;40.960;14.836;2022-07-18T13:03:27;33.10;83.60
31725;DHT22;18306;40.960;14.836;2022-07-18T13:05:55;33.10;85.30
31725;DHT22;18306;40.960;14.836;2022-07-18T13:08:22;33.20;84.60
31725;DHT22;18306;40.960;14.836;2022-07-18T13:10:50;33.20;83.40
31725;DHT22;18306;40.960;14.836;2022-07-18T13:13:17;33.20;83.30
31725;DHT22;18306;40.960;14.836;2022-07-18T13:15:44;33.10;84.10
31725;DHT22;18306;40.960;14.836;2022-07-18T13:18:11;33.00;81.10
31725;DHT22;18306;40.960;14.836;2022-07-18T13:20:41;33.20;81.20
31725;DHT22;18306;40.960;14.836;2022-07-18T13:23:08;33.20;82.10
31725;DHT22;18306;40.960;14.836;2022-07-18T13:25:38;33.20;82.50
31725;DHT22;18306;40.960;14.836;2022-07-18T13:28:05;33.30;81.90
31725;DHT22;18306;40.960;14.836;2022-07-18T13:30:32;33.30;81.80
31725;DHT22;18306;40.960;14.836;2022-07-18T13:33:00;33.30;82.70
31725;DHT22;18306;40.960;14.836;2022-07-18T13:35:27;33.30;82.50
31725;DHT22;18306;40.960;14.836;2022-07-18T13:37:54;33.30;82.10
31725;DHT22;18306;40.960;14.836;2022-07-18T13:40:21;33.20;82.50
31725;DHT22;18306;40.960;14.836;2022-07-18T13:42:51;33.20;82.00
31725;DHT22;18306;40.960;14.836;2022-07-18T13:45:19;33.20;82.70
31725;DHT22;18306;40.960;14.836;2022-07-18T13:47:46;33.20;80.30
31725;DHT22;18306;40.960;14.836;2022-07-18T13:50:13;33.10;82.80
31725;DHT22;18306;40.960;14.836;2022-07-18T13:52:40;33.10;84.80
31725;DHT22;18306;40.960;14.836;2022-07-18T13:55:08;33.00;85.90
31725;DHT22;18306;40.960;14.836;2022-07-18T13:57:35;33.00;82.90
31725;DHT22;18306;40.960;14.836;2022-07-18T14:00:09;33.00;83.40
31725;DHT22;18306;40.960;14.836;2022-07-18T14:02:37;33.20;84.00
31725;DHT22;18306;40.960;14.836;2022-07-18T14:05:04;33.00;83.80
31725;DHT22;18306;40.960;14.836;2022-07-18T14:07:32;33.10;83.20
31725;DHT22;18306;40.960;14.836;2022-07-18T14:09:59;33.00;86.40
31725;DHT22;18306;40.960;14.836;2022-07-18T14:12:26;33.00;85.60
31725;DHT22;18306;40.960;14.836;2022-07-18T14:14:56;32.90;86.00
31725;DHT22;18306;40.960;14.836;2022-07-18T14:17:24;32.80;87.00
31725;DHT22;18306;40.960;14.836;2022-07-18T14:19:53;32.70;87.40
31725;DHT22;18306;40.960;14.836;2022-07-18T14:22:20;32.50;88.70
31725;DHT22;18306;40.960;14.836;2022-07-18T14:24:48;32.50;89.50
31725;DHT22;18306;40.960;14.836;2022-07-18T14:27:15;32.30;90.20
31725;DHT22;18306;40.960;14.836;2022-07-18T14:29:46;32.30;90.20
31725;DHT22;18306;40.960;14.836;2022-07-18T14:32:14;32.30;90.20
31725;DHT22;18306;40.960;14.836;2022-07-18T14:34:43;32.20;90.20
31725;DHT22;18306;40.960;14.836;2022-07-18T14:50:33;31.90;90.60
31725;DHT22;18306;40.960;14.836;2022-07-18T14:53:02;31.80;90.80
31725;DHT22;18306;40.960;14.836;2022-07-18T14:55:36;31.70;90.20
31725;DHT22;18306;40.960;14.836;2022-07-18T14:58:04;31.60;89.70
31725;DHT22;18306;40.960;14.836;2022-07-18T15:00:32;31.50;90.40
31725;DHT22;18306;40.960;14.836;2022-07-18T15:03:00;31.30;89.80
31725;DHT22;18306;40.960;14.836;2022-07-18T15:05:28;31.40;90.40
31725;DHT22;18306;40.960;14.836;2022-07-18T15:07:55;31.20;90.30
31725;DHT22;18306;40.960;14.836;2022-07-18T15:10:22;31.30;90.80
31725;DHT22;18306;40.960;14.836;2022-07-18T15:12:49;31.20;90.60
31725;DHT22;18306;40.960;14.836;2022-07-18T15:15:17;31.20;91.00
31725;DHT22;18306;40.960;14.836;2022-07-18T15:17:44;31.10;90.50
31725;DHT22;18306;40.960;14.836;2022-07-18T15:20:12;31.00;90.40
31725;DHT22;18306;40.960;14.836;2022-07-18T15:22:40;30.90;90.30
31725;DHT22;18306;40.960;14.836;2022-07-18T15:25:07;30.90;90.60
31725;DHT22;18306;40.960;14.836;2022-07-18T15:27:35;30.80;90.00
31725;DHT22;18306;40.960;14.836;2022-07-18T15:30:02;30.90;90.30
31725;DHT22;18306;40.960;14.836;2022-07-18T15:32:32;30.70;89.70
31725;DHT22;18306;40.960;14.836;2022-07-18T15:34:59;30.70;88.70
31725;DHT22;18306;40.960;14.836;2022-07-18T15:37:27;30.50;87.80
31725;DHT22;18306;40.960;14.836;2022-07-18T15:39:54;30.50;87.70
31725;DHT22;18306;40.960;14.836;2022-07-18T15:42:21;30.50;87.70
31725;DHT22;18306;40.960;14.836;2022-07-18T15:44:48;30.50;90.60
31725;DHT22;18306;40.960;14.836;2022-07-18T15:47:15;30.40;89.10
31725;DHT22;18306;40.960;14.836;2022-07-18T15:49:42;30.40;89.00
31725;DHT22;18306;40.960;14.836;2022-07-18T15:52:10;30.40;88.20
31725;DHT22;18306;40.960;14.836;2022-07-18T15:54:37;30.10;89.30
31725;DHT22;18306;40.960;14.836;2022-07-18T15:57:05;30.20;88.00
31725;DHT22;18306;40.960;14.836;2022-07-18T15:59:33;30.20;89.40
31725;DHT22;18306;40.960;14.836;2022-07-18T16:02:02;30.30;89.30
31725;DHT22;18306;40.960;14.836;2022-07-18T16:04:29;30.20;88.60
31725;DHT22;18306;40.960;14.836;2022-07-18T16:06:56;30.20;89.50
31725;DHT22;18306;40.960;14.836;2022-07-18T16:09:23;30.00;90.60
31725;DHT22;18306;40.960;14.836;2022-07-18T16:11:50;30.00;89.10
31725;DHT22;18306;40.960;14.836;2022-07-18T16:14:18;30.10;89.60
31725;DHT22;18306;40.960;14.836;2022-07-18T16:16:46;30.00;90.20
31725;DHT22;18306;40.960;14.836;2022-07-18T16:19:13;29.90;90.70
31725;DHT22;18306;40.960;14.836;2022-07-18T16:21:40;29.70;91.10
31725;DHT22;18306;40.960;14.836;2022-07-18T16:24:07;29.80;90.10
31725;DHT22;18306;40.960;14.836;2022-07-18T16:26:35;29.90;90.80
31725;DHT22;18306;40.960;14.836;2022-07-18T16:29:02;30.00;90.10